createdAt,value
2022-12-16T00:00:01.603Z,96773.97
2022-12-16T00:02:31.760Z,96790.50
2022-12-16T00:05:02.124Z,96793.41
2022-12-16T00:07:34.929Z,96791.59
2022-12-16T00:10:05.060Z,96791.31
2022-12-16T00:12:35.052Z,96790.69
2022-12-16T00:15:05.139Z,96787.25
2022-12-16T00:17:36.254Z,96786.22
2022-12-16T00:20:06.800Z,96786.88
2022-12-16T00:22:39.372Z,96790.19
2022-12-16T00:25:11.412Z,96782.66
2022-12-16T00:27:41.427Z,96786.38
2022-12-16T00:30:13.440Z,96792.41
2022-12-16T00:32:43.473Z,96792.41
2022-12-16T00:35:13.466Z,96785.47
2022-12-16T00:37:46.065Z,96792.69
2022-12-16T00:40:16.297Z,96787.69
2022-12-16T00:42:46.385Z,96790.84
2022-12-16T00:45:16.815Z,96794.53
2022-12-16T00:47:46.868Z,96794.53
2022-12-16T00:50:16.983Z,96798.22
2022-12-16T00:52:50.060Z,96799.78
2022-12-16T00:55:21.446Z,96795.56
2022-12-16T00:57:51.745Z,96802.00
2022-12-16T01:00:22.514Z,96805.97
2022-12-16T01:02:54.813Z,96810.41
2022-12-16T01:05:27.518Z,96809.91
2022-12-16T01:08:00.422Z,96808.19
2022-12-16T01:10:31.486Z,96817.38
2022-12-16T01:13:01.471Z,96827.34
2022-12-16T01:15:31.496Z,96823.28
2022-12-16T01:18:01.579Z,96827.19
2022-12-16T01:20:31.666Z,96828.91
2022-12-16T01:23:04.264Z,96828.91
2022-12-16T01:25:34.424Z,96818.66
2022-12-16T01:28:04.559Z,96824.56
2022-12-16T01:30:34.823Z,96830.88
2022-12-16T01:33:04.973Z,96828.00
2022-12-16T01:38:27.615Z,96840.19
2022-12-16T01:40:57.811Z,96842.81
2022-12-16T01:43:31.643Z,96852.22
2022-12-16T01:46:07.905Z,96851.44
2022-12-16T01:48:55.120Z,96860.63
2022-12-16T01:51:31.295Z,96858.28
2022-12-16T01:54:09.547Z,96863.50
2022-12-16T01:56:47.408Z,96858.53
2022-12-16T01:59:21.306Z,96871.91
2022-12-16T02:01:51.490Z,96868.50
2022-12-16T02:04:21.597Z,96864.94
2022-12-16T02:06:52.062Z,96876.09
2022-12-16T02:09:24.931Z,96878.63
2022-12-16T02:12:20.475Z,96877.56
2022-12-16T02:15:16.948Z,96873.47
2022-12-16T02:18:02.594Z,96874.53
2022-12-16T02:21:20.292Z,96875.97
2022-12-16T02:24:52.988Z,96869.81
2022-12-16T02:27:53.008Z,96876.38
2022-12-16T02:30:55.257Z,96875.03
2022-12-16T02:34:04.908Z,96872.16
2022-12-16T02:36:57.336Z,96880.03
2022-12-16T02:39:38.164Z,96873.88
2022-12-16T02:42:17.643Z,96878.47
2022-12-16T02:45:00.223Z,96885.28
2022-12-16T02:47:34.186Z,96891.31
2022-12-16T02:50:04.622Z,96890.81
2022-12-16T02:52:37.861Z,96897.63
2022-12-16T02:55:11.787Z,96896.84
2022-12-16T02:58:06.059Z,96898.16
2022-12-16T03:00:48.200Z,96903.00
2022-12-16T03:03:30.977Z,96906.28
2022-12-16T03:06:04.636Z,96904.97
2022-12-16T03:08:42.369Z,96909.44
2022-12-16T03:11:12.672Z,96903.94
2022-12-16T03:13:49.294Z,96903.38
2022-12-16T03:16:26.203Z,96909.97
2022-12-16T03:19:05.544Z,96914.00
2022-12-16T03:21:42.350Z,96912.03
2022-12-16T03:24:14.618Z,96912.31
2022-12-16T03:26:54.263Z,96907.06
2022-12-16T03:29:33.467Z,96910.84
2022-12-16T03:32:08.263Z,96915.19
2022-12-16T03:34:47.695Z,96922.00
2022-12-16T03:37:18.060Z,96920.81
2022-12-16T03:39:53.449Z,96924.91
2022-12-16T03:42:23.388Z,96933.56
2022-12-16T03:44:53.885Z,96931.31
2022-12-16T03:47:24.291Z,96933.28
2022-12-16T03:49:56.966Z,96932.38
2022-12-16T03:52:26.956Z,96936.97
2022-12-16T03:54:58.088Z,96936.97
2022-12-16T03:57:28.196Z,96944.94
2022-12-16T03:59:58.176Z,96938.03
2022-12-16T04:02:28.352Z,96942.19
2022-12-16T04:05:01.033Z,96941.69
2022-12-16T04:07:31.217Z,96951.63
2022-12-16T04:10:01.170Z,96948.47
2022-12-16T04:12:43.639Z,96950.19
2022-12-16T04:15:27.143Z,96952.41
2022-12-16T04:18:09.752Z,96954.78
2022-12-16T04:21:00.856Z,96961.34
2022-12-16T04:23:46.257Z,96967.63
2022-12-16T04:26:16.510Z,96966.84
2022-12-16T04:28:46.481Z,96974.97
2022-12-16T04:31:16.703Z,96970.41
2022-12-16T04:33:59.354Z,96978.66
2022-12-16T04:36:44.199Z,96979.97
2022-12-16T04:39:26.682Z,96979.97
2022-12-16T04:42:09.695Z,96983.09
2022-12-16T04:45:01.008Z,96986.25
2022-12-16T04:47:43.535Z,96993.72
2022-12-16T04:50:26.112Z,96993.31
2022-12-16T04:53:11.525Z,97002.63
2022-12-16T04:55:57.904Z,97008.09
2022-12-16T04:58:43.143Z,97002.50
2022-12-16T05:01:25.818Z,97006.44
2022-12-16T05:04:08.431Z,97008.25
2022-12-16T05:06:50.981Z,97013.59
2022-12-16T05:09:36.050Z,97004.81
2022-12-16T05:12:19.148Z,97005.88
2022-12-16T05:15:01.611Z,97010.75
2022-12-16T05:17:44.128Z,97014.28
2022-12-16T05:20:27.067Z,97017.91
2022-12-16T05:23:11.603Z,97022.13
2022-12-16T05:25:56.714Z,97032.22
2022-12-16T05:28:39.206Z,97038.91
2022-12-16T05:31:21.791Z,97036.94
2022-12-16T05:34:04.355Z,97041.25
2022-12-16T05:36:46.880Z,97044.66
2022-12-16T05:39:29.429Z,97048.31
2022-12-16T05:42:14.559Z,97059.88
2022-12-16T05:44:57.085Z,97060.13
2022-12-16T05:47:40.153Z,97062.75
2022-12-16T05:50:23.741Z,97062.09
2022-12-16T05:53:06.670Z,97066.66
2022-12-16T05:55:49.287Z,97071.91
2022-12-16T05:58:34.504Z,97069.25
2022-12-16T06:01:16.992Z,97069.53
2022-12-16T06:03:59.532Z,97079.47
2022-12-16T06:06:42.183Z,97081.84
2022-12-16T06:09:24.874Z,97077.78
2022-12-16T06:12:07.427Z,97087.09
2022-12-16T06:14:52.548Z,97090.22
2022-12-16T06:17:36.457Z,97100.19
2022-12-16T06:20:32.507Z,97109.00
2022-12-16T06:23:15.024Z,97111.22
2022-12-16T06:25:57.898Z,97111.47
2022-12-16T06:28:45.655Z,97123.00
2022-12-16T06:31:31.230Z,97132.19
2022-12-16T06:34:13.875Z,97144.78
2022-12-16T06:36:56.619Z,97143.19
2022-12-16T06:39:39.236Z,97149.97
2022-12-16T06:42:21.791Z,97156.31
2022-12-16T06:45:04.352Z,97158.44
2022-12-16T06:47:49.621Z,97165.16
2022-12-16T06:50:44.775Z,97172.38
2022-12-16T06:53:27.635Z,97171.97
2022-12-16T06:56:10.164Z,97176.97
2022-12-16T06:58:52.665Z,97188.91
2022-12-16T07:01:35.335Z,97182.91
2022-12-16T07:04:20.870Z,97183.78
2022-12-16T07:07:03.402Z,97193.75
2022-12-16T07:09:51.505Z,97191.66
2022-12-16T07:12:34.360Z,97208.94
2022-12-16T07:15:16.970Z,97216.72
2022-12-16T07:18:01.371Z,97226.38
2022-12-16T07:20:46.631Z,97228.50
2022-12-16T07:23:29.150Z,97228.16
2022-12-16T07:26:11.654Z,97230.50
2022-12-16T07:28:54.200Z,97234.69
2022-12-16T07:31:37.119Z,97237.19
2022-12-16T07:34:19.670Z,97239.34
2022-12-16T07:37:04.803Z,97246.66
2022-12-16T07:39:54.299Z,97249.59
2022-12-16T07:42:37.723Z,97251.72
2022-12-16T07:45:21.727Z,97251.66
2022-12-16T07:48:04.994Z,97262.06
2022-12-16T07:50:47.554Z,97270.69
2022-12-16T07:53:32.935Z,97277.13
2022-12-16T07:56:15.771Z,97276.91
2022-12-16T07:58:58.272Z,97282.72
2022-12-16T08:01:40.965Z,97283.50
2022-12-16T08:04:23.621Z,97290.44
2022-12-16T08:07:06.147Z,97287.84
2022-12-16T08:09:51.243Z,97300.34
2022-12-16T08:12:33.754Z,97294.16
2022-12-16T08:15:16.310Z,97303.94
2022-12-16T08:18:04.417Z,97305.28
2022-12-16T08:20:46.967Z,97315.72
2022-12-16T08:23:29.612Z,97326.31
2022-12-16T08:26:14.768Z,97318.72
2022-12-16T08:29:05.527Z,97324.53
2022-12-16T08:31:59.820Z,97326.88
2022-12-16T08:34:42.364Z,97327.16
2022-12-16T08:37:25.108Z,97329.81
2022-12-16T08:43:14.229Z,97335.34
2022-12-16T08:45:56.924Z,97348.09
2022-12-16T08:48:39.428Z,97351.06
2022-12-16T08:51:22.549Z,97356.28
2022-12-16T08:54:05.136Z,97359.69
2022-12-16T08:56:48.138Z,97366.06
2022-12-16T08:59:33.304Z,97372.66
2022-12-16T09:02:16.660Z,97377.56
2022-12-16T09:04:59.544Z,97381.47
2022-12-16T09:07:42.048Z,97381.25
2022-12-16T09:10:24.611Z,97384.97
2022-12-16T09:13:07.330Z,97391.38
2022-12-16T09:15:53.731Z,97393.44
2022-12-16T09:18:36.245Z,97394.94
2022-12-16T09:21:21.588Z,97403.47
2022-12-16T09:24:04.075Z,97395.72
2022-12-16T09:26:46.691Z,97407.94
2022-12-16T09:29:29.226Z,97402.91
2022-12-16T09:32:14.443Z,97400.53
2022-12-16T09:34:56.920Z,97402.16
2022-12-16T09:37:39.408Z,97400.56
2022-12-16T09:40:27.117Z,97410.78
2022-12-16T09:43:23.850Z,97418.59
2022-12-16T09:46:25.374Z,97417.88
2022-12-16T09:49:35.697Z,97419.63
2022-12-16T09:52:24.482Z,97426.41
2022-12-16T09:55:07.303Z,97422.97
2022-12-16T09:57:52.348Z,97428.63
2022-12-16T10:00:38.917Z,97430.47
2022-12-16T10:03:34.828Z,97435.88
2022-12-16T10:06:37.195Z,97446.44
2022-12-16T10:09:31.659Z,97437.19
2022-12-16T10:12:26.524Z,97440.66
2022-12-16T10:15:24.669Z,97447.72
2022-12-16T10:18:07.339Z,97445.03
2022-12-16T10:21:00.220Z,97446.84
2022-12-16T10:23:58.988Z,97444.00
2022-12-16T10:27:04.953Z,97442.72
2022-12-16T10:29:55.632Z,97446.97
2022-12-16T10:32:47.630Z,97446.50
2022-12-16T10:35:38.733Z,97453.56
2022-12-16T10:38:33.755Z,97451.19
2022-12-16T10:41:21.667Z,97444.69
2022-12-16T10:44:05.563Z,97445.81
2022-12-16T10:46:50.803Z,97452.13
2022-12-16T10:49:34.893Z,97454.38
2022-12-16T10:52:17.876Z,97446.94
2022-12-16T10:55:11.411Z,97453.75
2022-12-16T10:58:11.565Z,97452.06
2022-12-16T11:00:59.058Z,97454.19
2022-12-16T11:03:45.216Z,97457.47
2022-12-16T11:06:33.030Z,97459.06
2022-12-16T11:09:36.307Z,97466.00
2022-12-16T11:12:38.965Z,97464.91
2022-12-16T11:15:42.534Z,97472.03
2022-12-16T11:18:28.732Z,97466.25
2022-12-16T11:21:28.645Z,97464.50
2022-12-16T11:24:31.367Z,97464.47
2022-12-16T11:27:16.907Z,97454.66
2022-12-16T11:30:11.465Z,97461.53
2022-12-16T11:33:02.450Z,97464.75
2022-12-16T11:35:52.573Z,97466.34
2022-12-16T11:38:42.679Z,97471.00
2022-12-16T11:41:38.008Z,97471.41
2022-12-16T11:44:29.009Z,97476.47
2022-12-16T11:47:11.480Z,97474.63
2022-12-16T11:49:56.559Z,97482.09
2022-12-16T11:52:39.402Z,97475.91
2022-12-16T11:56:03.393Z,97474.94
2022-12-16T11:58:44.719Z,97487.16
2022-12-16T12:01:35.366Z,97491.44
2022-12-16T12:04:20.905Z,97491.44
2022-12-16T12:07:29.061Z,97495.94
2022-12-16T12:10:29.040Z,97501.94
2022-12-16T12:13:20.870Z,97509.06
2022-12-16T12:16:19.860Z,97507.59
2022-12-16T12:19:19.324Z,97510.72
2022-12-16T12:22:14.493Z,97513.28
2022-12-16T12:25:08.461Z,97509.50
2022-12-16T12:28:01.448Z,97520.72
2022-12-16T12:30:54.648Z,97516.31
2022-12-16T12:33:53.495Z,97520.38
2022-12-16T12:36:49.589Z,97528.53
2022-12-16T12:39:43.057Z,97535.56
2022-12-16T12:42:49.597Z,97536.03
2022-12-16T12:46:10.191Z,97536.81
2022-12-16T12:49:05.890Z,97541.88
2022-12-16T12:52:06.011Z,97537.50
2022-12-16T12:55:00.465Z,97548.75
2022-12-16T12:57:45.803Z,97549.19
2022-12-16T13:00:35.232Z,97550.66
2022-12-16T13:03:29.370Z,97558.84
2022-12-16T13:06:25.257Z,97547.66
2022-12-16T13:09:13.443Z,97552.47
2022-12-16T13:12:44.291Z,97547.84
2022-12-16T13:15:35.514Z,97551.94
2022-12-16T13:18:44.509Z,97555.63
2022-12-16T13:22:03.346Z,97562.72
2022-12-16T13:25:02.214Z,97560.56
2022-12-16T13:28:08.020Z,97560.56
2022-12-16T13:30:51.115Z,97570.72
2022-12-16T13:33:41.722Z,97576.16
2022-12-16T13:36:27.658Z,97582.88
2022-12-16T13:39:14.931Z,97585.63
2022-12-16T13:42:15.299Z,97592.63
2022-12-16T13:45:14.844Z,97601.81
2022-12-16T13:48:20.739Z,97612.56
2022-12-16T13:51:06.411Z,97610.56
2022-12-16T13:53:56.714Z,97607.59
2022-12-16T13:56:48.593Z,97619.38
2022-12-16T13:59:36.556Z,97618.72
2022-12-16T14:02:46.331Z,97625.06
2022-12-16T14:05:42.595Z,97633.66
2022-12-16T14:08:33.005Z,97638.88
2022-12-16T14:11:21.036Z,97647.75
2022-12-16T14:14:16.394Z,97655.00
2022-12-16T14:17:08.200Z,97657.97
2022-12-16T14:20:11.350Z,97672.94
2022-12-16T14:23:32.387Z,97672.72
2022-12-16T14:26:15.948Z,97677.47
2022-12-16T14:29:01.775Z,97677.91
2022-12-16T14:31:53.246Z,97678.56
2022-12-16T14:34:39.056Z,97692.41
2022-12-16T14:37:29.176Z,97685.16
2022-12-16T14:40:11.736Z,97687.91
2022-12-16T14:42:56.745Z,97696.16
2022-12-16T14:45:45.961Z,97700.44
2022-12-16T14:48:47.473Z,97701.00
2022-12-16T14:51:40.200Z,97709.88
2022-12-16T14:54:57.936Z,97701.94
2022-12-16T14:57:42.652Z,97715.09
2022-12-16T15:00:33.032Z,97706.69
2022-12-16T15:03:42.261Z,97716.19
2022-12-16T15:06:33.457Z,97720.63
2022-12-16T15:09:20.882Z,97723.03
2022-12-16T15:12:09.779Z,97717.34
2022-12-16T15:14:56.257Z,97725.84
2022-12-16T15:17:43.691Z,97732.16
2022-12-16T15:20:35.616Z,97741.09
2022-12-16T15:23:18.262Z,97740.31
2022-12-16T15:26:09.413Z,97745.22
2022-12-16T15:28:59.878Z,97741.09
2022-12-16T15:31:51.472Z,97741.34
2022-12-16T15:34:45.323Z,97743.97
2022-12-16T15:37:35.124Z,97746.09
2022-12-16T15:40:18.041Z,97763.22
2022-12-16T15:43:06.494Z,97765.94
2022-12-16T15:45:52.510Z,97763.91
2022-12-16T15:48:40.107Z,97773.97
2022-12-16T15:51:38.351Z,97781.13
2022-12-16T15:54:21.243Z,97781.22
2022-12-16T15:57:13.301Z,97797.72
2022-12-16T16:00:12.810Z,97788.94
2022-12-16T16:03:03.593Z,97788.72
2022-12-16T16:05:47.609Z,97795.06
2022-12-16T16:08:30.121Z,97808.66
2022-12-16T16:11:13.144Z,97811.81
2022-12-16T16:13:59.353Z,97818.50
2022-12-16T16:16:47.021Z,97823.25
2022-12-16T16:19:39.099Z,97820.41
2022-12-16T16:22:26.753Z,97823.59
2022-12-16T16:25:09.265Z,97828.81
2022-12-16T16:27:51.980Z,97830.06
2022-12-16T16:30:34.804Z,97826.56
2022-12-16T16:33:25.840Z,97837.53
2022-12-16T16:36:11.294Z,97841.50
2022-12-16T16:38:53.924Z,97854.69
2022-12-16T16:41:38.940Z,97853.06
2022-12-16T16:44:30.387Z,97841.41
2022-12-16T16:47:14.021Z,97846.06
2022-12-16T16:50:00.806Z,97851.63
2022-12-16T16:52:47.096Z,97850.59
2022-12-16T16:55:32.889Z,97845.53
2022-12-16T16:58:15.682Z,97848.34
2022-12-16T17:00:58.296Z,97853.34
2022-12-16T17:03:41.661Z,97862.69
2022-12-16T17:06:24.730Z,97857.97
2022-12-16T17:09:09.849Z,97876.34
2022-12-16T17:11:54.247Z,97876.53
2022-12-16T17:14:37.236Z,97874.19
2022-12-16T17:17:21.133Z,97887.56
2022-12-16T17:20:03.742Z,97891.41
2022-12-16T17:22:46.585Z,97903.97
2022-12-16T17:25:32.531Z,97912.88
2022-12-16T17:28:15.899Z,97915.94
2022-12-16T17:30:58.502Z,97925.91
2022-12-16T17:33:43.847Z,97926.69
2022-12-16T17:36:31.867Z,97930.72
2022-12-16T17:39:15.339Z,97939.91
2022-12-16T17:42:00.970Z,97940.47
2022-12-16T17:44:43.574Z,97949.06
2022-12-16T17:47:26.147Z,97945.69
2022-12-16T17:50:08.727Z,97947.25
2022-12-16T17:52:51.435Z,97952.25
2022-12-16T17:55:34.235Z,97954.53
2022-12-16T17:58:19.340Z,97950.09
2022-12-16T18:01:01.969Z,97950.03
2022-12-16T18:03:44.715Z,97953.88
2022-12-16T18:06:27.419Z,97958.88
2022-12-16T18:09:09.729Z,97966.56
2022-12-16T18:11:52.346Z,97967.88
2022-12-16T18:14:38.006Z,97965.06
2022-12-16T18:17:20.805Z,97971.16
2022-12-16T18:20:03.363Z,97972.53
2022-12-16T18:22:45.858Z,97974.53
2022-12-16T18:25:28.664Z,97976.16
2022-12-16T18:28:11.200Z,97978.44
2022-12-16T18:30:56.293Z,97980.72
2022-12-16T18:33:38.888Z,97984.78
2022-12-16T18:36:22.354Z,97985.41
2022-12-16T18:39:04.914Z,97993.59
2022-12-16T18:41:47.426Z,98001.94
2022-12-16T18:44:30.362Z,97997.88
2022-12-16T18:47:15.815Z,98010.31
2022-12-16T18:49:58.608Z,98014.09
2022-12-16T18:52:41.250Z,98012.88
2022-12-16T18:55:24.203Z,98008.19
2022-12-16T18:58:20.974Z,98013.31
2022-12-16T19:01:17.877Z,98022.78
2022-12-16T19:04:03.200Z,98030.25
2022-12-16T19:06:45.728Z,98030.53
2022-12-16T19:09:28.254Z,98038.84
2022-12-16T19:12:10.787Z,98037.03
2022-12-16T19:14:53.301Z,98037.84
2022-12-16T19:17:50.786Z,98041.03
2022-12-16T19:20:36.785Z,98045.41
2022-12-16T19:23:19.567Z,98040.44
2022-12-16T19:26:02.087Z,98054.00
2022-12-16T19:28:44.847Z,98053.78
2022-12-16T19:31:32.535Z,98052.59
2022-12-16T19:34:29.995Z,98063.47
2022-12-16T19:37:15.108Z,98064.03
2022-12-16T19:39:57.939Z,98071.81
2022-12-16T19:42:40.695Z,98077.91
2022-12-16T19:45:24.767Z,98080.38
2022-12-16T19:48:07.647Z,98093.84
2022-12-16T19:50:50.333Z,98091.06
2022-12-16T19:53:35.592Z,98088.25
2022-12-16T19:56:18.173Z,98096.81
2022-12-16T19:59:01.281Z,98098.03
2022-12-16T20:01:44.574Z,98105.97
2022-12-16T20:04:27.535Z,98108.34
2022-12-16T20:07:10.078Z,98117.66
2022-12-16T20:09:56.113Z,98119.44
2022-12-16T20:12:38.754Z,98119.22
2022-12-16T20:15:23.007Z,98120.13
2022-12-16T20:18:05.475Z,98133.25
2022-12-16T20:20:48.128Z,98133.88
2022-12-16T20:23:30.764Z,98135.28
2022-12-16T20:26:17.533Z,98138.56
2022-12-16T20:29:00.881Z,98135.47
2022-12-16T20:31:43.599Z,98140.63
2022-12-16T20:34:26.589Z,98144.81
2022-12-16T20:37:09.116Z,98143.59
2022-12-16T20:39:56.449Z,98141.81
2022-12-16T20:42:43.610Z,98142.44
2022-12-16T20:45:31.312Z,98147.28
2022-12-16T20:48:13.836Z,98150.69
2022-12-16T20:50:56.605Z,98150.41
2022-12-16T20:53:39.678Z,98152.97
2022-12-16T20:56:22.649Z,98156.78
2022-12-16T20:59:07.830Z,98157.56
2022-12-16T21:04:54.137Z,98162.22
2022-12-16T21:07:37.510Z,98168.13
2022-12-16T21:10:21.393Z,98165.63
2022-12-16T21:13:06.993Z,98176.22
2022-12-16T21:15:53.453Z,98181.09
2022-12-16T21:18:40.005Z,98189.66
2022-12-16T21:21:37.520Z,98188.28
2022-12-16T21:24:20.715Z,98198.84
2022-12-16T21:27:03.277Z,98212.19
2022-12-16T21:29:45.819Z,98206.09
2022-12-16T21:32:30.933Z,98206.03
2022-12-16T21:35:13.428Z,98209.41
2022-12-16T21:37:55.908Z,98209.53
2022-12-16T21:40:39.083Z,98209.75
2022-12-16T21:43:21.642Z,98215.41
2022-12-16T21:46:07.940Z,98220.72
2022-12-16T21:48:53.095Z,98225.00
2022-12-16T21:51:38.947Z,98228.06
2022-12-16T21:54:21.583Z,98233.44
2022-12-16T21:57:04.296Z,98235.91
2022-12-16T21:59:46.850Z,98234.53
2022-12-16T22:02:29.763Z,98250.47
2022-12-16T22:05:15.067Z,98252.84
2022-12-16T22:07:57.891Z,98255.72
2022-12-16T22:10:40.538Z,98260.41
2022-12-16T22:13:23.059Z,98266.38
2022-12-16T22:16:11.231Z,98268.63
2022-12-16T22:18:53.775Z,98277.53
2022-12-16T22:21:41.471Z,98281.66
2022-12-16T22:24:24.267Z,98284.84
2022-12-16T22:27:06.804Z,98290.91
2022-12-16T22:29:49.332Z,98299.66
2022-12-16T22:32:31.844Z,98295.25
2022-12-16T22:35:14.370Z,98305.56
2022-12-16T22:37:59.565Z,98309.66
2022-12-16T22:40:42.096Z,98310.81
2022-12-16T22:43:24.699Z,98308.16
2022-12-16T22:46:14.823Z,98311.72
2022-12-16T22:48:57.360Z,98309.66
2022-12-16T22:51:39.898Z,98309.13
2022-12-16T22:54:24.973Z,98318.88
2022-12-16T22:57:07.534Z,98320.94
2022-12-16T22:59:50.219Z,98315.63
2022-12-16T23:02:32.733Z,98329.31
2022-12-16T23:05:15.359Z,98327.06
2022-12-16T23:07:58.011Z,98339.59
2022-12-16T23:10:43.318Z,98331.34
2022-12-16T23:13:27.809Z,98331.75
2022-12-16T23:16:10.448Z,98333.13
2022-12-16T23:18:56.459Z,98337.84
2022-12-16T23:21:54.052Z,98339.94
2022-12-16T23:24:36.584Z,98335.88
2022-12-16T23:27:21.822Z,98349.94
2022-12-16T23:30:04.361Z,98339.28
2022-12-16T23:32:46.906Z,98344.56
2022-12-16T23:35:29.646Z,98344.09
2022-12-16T23:38:16.706Z,98337.03
2022-12-16T23:40:59.421Z,98344.63
2022-12-16T23:43:44.707Z,98340.53
2022-12-16T23:46:27.352Z,98339.97
2022-12-16T23:49:09.966Z,98337.56
2022-12-16T23:51:52.475Z,98336.78
2022-12-16T23:54:34.992Z,98346.16
2022-12-16T23:57:17.524Z,98339.81
